Tercio, Colorado
Current Conditions -  °F | °C
As of 12:53 PM on Wednesday 28 Jan 2015 (Local Time) from KRTN Reporting Station
Clear Clear  
Wind Chill: 66°   Ceiling: Unl
Heat Index: 66°   Visibility: 10mi
Dew Point: 11°   Wind: 22mph
Humidity: 12%   Direction: 280°W
Pressure: 30.04"   Gusts: 31mph
Location:  37.1566°N, 104.956°W
Report Text: KRTN 281953Z AUTO 28019G27KT 10SM CLR 19/M12 A3004 RMK AO2 PK WND 30028/1914 WSHFT 1913 SLP129 T01891117
Loading
Personal Weather Stations






























Interactive Weather Map New forecast layout! Learn more

10-Day Weather Forecast

Advertisements
Track Severe Weather on mobile